createdAt,value
2022-12-14T00:00:27.839Z,-4.47
2022-12-14T00:02:57.744Z,-4.29
2022-12-14T00:05:29.064Z,-4.65
2022-12-14T00:07:58.633Z,-4.83
2022-12-14T00:10:28.526Z,-4.66
2022-12-14T00:12:58.494Z,-4.64
2022-12-14T00:15:28.294Z,-4.62
2022-12-14T00:17:57.856Z,-4.84
2022-12-14T00:20:27.955Z,-4.68
2022-12-14T00:22:56.723Z,-4.64
2022-12-14T00:25:25.555Z,-4.39
2022-12-14T00:27:53.362Z,-4.44
2022-12-14T00:30:22.951Z,-4.49
2022-12-14T00:32:50.735Z,-4.39
2022-12-14T00:35:20.275Z,-4.70
2022-12-14T00:37:49.788Z,-4.57
2022-12-14T00:40:17.637Z,-4.42
2022-12-14T00:42:47.200Z,-4.48
2022-12-14T00:45:16.787Z,-4.58
2022-12-14T00:47:46.335Z,-4.55
2022-12-14T00:50:15.832Z,-4.23
2022-12-14T00:52:45.282Z,-4.24
2022-12-14T00:55:14.819Z,-4.39
2022-12-14T00:57:44.373Z,-4.74
2022-12-14T01:00:14.064Z,-4.51
2022-12-14T01:02:42.773Z,-4.32
2022-12-14T01:05:12.391Z,-4.17
2022-12-14T01:07:41.936Z,-4.21
2022-12-14T01:10:11.467Z,-4.27
2022-12-14T01:12:41.007Z,-4.28
2022-12-14T01:15:11.187Z,-4.16
2022-12-14T01:17:40.852Z,-4.12
2022-12-14T01:20:11.167Z,-3.94
2022-12-14T01:22:40.767Z,-4.07
2022-12-14T01:25:10.349Z,-3.84
2022-12-14T01:27:39.866Z,-3.81
2022-12-14T01:30:10.129Z,-3.89
2022-12-14T01:32:39.656Z,-3.92
2022-12-14T01:35:09.612Z,-3.80
2022-12-14T01:37:38.315Z,-3.77
2022-12-14T01:40:08.005Z,-3.99
2022-12-14T01:42:38.328Z,-4.23
2022-12-14T01:45:23.743Z,-4.23
2022-12-14T01:47:59.413Z,-4.17
2022-12-14T01:50:44.436Z,-4.13
2022-12-14T01:53:21.707Z,-4.22
2022-12-14T01:55:55.866Z,-4.09
2022-12-14T01:58:29.009Z,-3.93
2022-12-14T02:01:00.425Z,-3.89
2022-12-14T02:03:39.343Z,-3.83
2022-12-14T02:06:35.327Z,-4.08
2022-12-14T02:09:15.265Z,-3.98
2022-12-14T02:11:56.311Z,-4.04
2022-12-14T02:14:26.342Z,-3.94
2022-12-14T02:16:58.267Z,-3.67
2022-12-14T02:19:28.766Z,-3.56
2022-12-14T02:22:47.414Z,-3.91
2022-12-14T02:26:25.396Z,-3.63
2022-12-14T02:29:40.270Z,-3.81
2022-12-14T02:33:15.712Z,-3.94
2022-12-14T02:36:02.418Z,-3.66
2022-12-14T02:39:12.254Z,-3.21
2022-12-14T02:41:53.733Z,-3.55
2022-12-14T02:45:13.907Z,-3.58
2022-12-14T02:48:09.712Z,-3.47
2022-12-14T02:51:08.519Z,-3.23
2022-12-14T02:54:12.880Z,-3.28
2022-12-14T02:56:55.007Z,-3.35
2022-12-14T02:59:25.511Z,-3.22
2022-12-14T03:01:54.140Z,-3.49
2022-12-14T03:04:25.018Z,-3.34
2022-12-14T03:07:04.617Z,-3.35
2022-12-14T03:09:33.802Z,-3.35
2022-12-14T03:12:11.529Z,-3.28
2022-12-14T03:14:50.949Z,-3.18
2022-12-14T03:17:27.803Z,-3.18
2022-12-14T03:20:10.691Z,-3.22
2022-12-14T03:22:55.907Z,-3.31
2022-12-14T03:25:42.487Z,-3.10
2022-12-14T03:28:22.213Z,-3.16
2022-12-14T03:31:36.350Z,-2.92
2022-12-14T03:34:14.645Z,-3.06
2022-12-14T03:37:01.567Z,-3.09
2022-12-14T03:39:35.453Z,-3.00
2022-12-14T03:43:07.534Z,-3.07
2022-12-14T03:45:56.365Z,-2.90
2022-12-14T03:48:38.185Z,-3.04
2022-12-14T03:51:35.940Z,-2.89
2022-12-14T03:54:46.623Z,-3.16
2022-12-14T03:57:47.297Z,-3.03
2022-12-14T04:00:25.502Z,-2.82
2022-12-14T04:03:14.823Z,-2.93
2022-12-14T04:05:57.519Z,-2.94
2022-12-14T04:09:00.857Z,-2.97
2022-12-14T04:11:59.310Z,-3.09
2022-12-14T04:15:04.264Z,-2.95
2022-12-14T04:17:56.872Z,-2.93
2022-12-14T04:20:42.441Z,-2.87
2022-12-14T04:23:41.614Z,-2.88
2022-12-14T04:26:18.164Z,-2.89
2022-12-14T04:29:16.580Z,-3.00
2022-12-14T04:31:58.274Z,-3.09
2022-12-14T04:34:32.537Z,-3.02
2022-12-14T04:37:11.871Z,-2.88
2022-12-14T04:39:53.986Z,-2.97
2022-12-14T04:42:35.040Z,-2.91
2022-12-14T04:45:23.964Z,-2.82
2022-12-14T04:48:21.291Z,-2.84
2022-12-14T04:51:06.481Z,-2.95
2022-12-14T04:53:40.177Z,-2.85
2022-12-14T04:56:34.857Z,-2.79
2022-12-14T04:59:04.768Z,-2.78
2022-12-14T05:01:52.173Z,-2.82
2022-12-14T05:04:55.298Z,-3.00
2022-12-14T05:07:58.496Z,-2.84
2022-12-14T05:10:48.766Z,-3.17
2022-12-14T05:13:32.239Z,-3.17
2022-12-14T05:16:01.262Z,-3.24
2022-12-14T05:18:30.056Z,-3.21
2022-12-14T05:20:57.806Z,-3.51
2022-12-14T05:23:25.946Z,-3.45
2022-12-14T05:25:53.922Z,-3.50
2022-12-14T05:28:23.410Z,-3.27
2022-12-14T05:30:52.639Z,-3.36
2022-12-14T05:33:21.796Z,-3.50
2022-12-14T05:35:51.309Z,-3.14
2022-12-14T05:38:20.899Z,-2.89
2022-12-14T05:40:50.365Z,-3.04
2022-12-14T05:43:19.054Z,-3.21
2022-12-14T05:45:47.897Z,-3.24
2022-12-14T05:48:17.373Z,-3.12
2022-12-14T05:50:46.833Z,-3.25
2022-12-14T05:53:15.579Z,-3.33
2022-12-14T05:55:51.660Z,-3.10
2022-12-14T05:58:20.381Z,-3.18
2022-12-14T06:00:48.141Z,-3.21
2022-12-14T06:03:16.877Z,-3.28
2022-12-14T06:05:47.541Z,-3.22
2022-12-14T06:08:16.217Z,-3.20
2022-12-14T06:10:45.688Z,-3.22
2022-12-14T06:13:14.296Z,-3.16
2022-12-14T06:15:43.028Z,-3.10
2022-12-14T06:18:10.868Z,-2.90
2022-12-14T06:20:40.319Z,-2.91
2022-12-14T06:23:10.711Z,-3.02
2022-12-14T06:25:39.256Z,-2.96
2022-12-14T06:28:07.877Z,-3.08
2022-12-14T06:30:37.405Z,-2.95
2022-12-14T06:33:06.966Z,-2.83
2022-12-14T06:35:36.598Z,-2.97
2022-12-14T06:38:05.307Z,-3.00
2022-12-14T06:40:34.812Z,-2.76
2022-12-14T06:43:04.581Z,-2.76
2022-12-14T06:45:33.526Z,-2.83
2022-12-14T06:48:01.614Z,-2.78
2022-12-14T06:50:29.487Z,-2.90
2022-12-14T06:52:58.546Z,-2.96
2022-12-14T06:55:29.692Z,-3.00
2022-12-14T06:57:59.417Z,-2.80
2022-12-14T07:00:28.156Z,-2.73
2022-12-14T07:02:56.952Z,-2.76
2022-12-14T07:05:26.687Z,-2.58
2022-12-14T07:07:54.449Z,-2.69
2022-12-14T07:10:23.142Z,-2.57
2022-12-14T07:12:52.601Z,-2.67
2022-12-14T07:15:21.312Z,-2.73
2022-12-14T07:17:49.858Z,-2.58
2022-12-14T07:20:18.868Z,-2.65
2022-12-14T07:22:49.449Z,-2.60
2022-12-14T07:25:18.979Z,-2.50
2022-12-14T07:27:48.646Z,-2.44
2022-12-14T07:30:18.424Z,-2.41
2022-12-14T07:32:47.157Z,-2.63
2022-12-14T07:35:17.073Z,-2.24
2022-12-14T07:37:45.565Z,-2.25
2022-12-14T07:40:18.791Z,-2.27
2022-12-14T07:42:51.505Z,-2.17
2022-12-14T07:45:20.984Z,-1.98
2022-12-14T07:47:50.443Z,-2.01
2022-12-14T07:50:18.289Z,-2.27
2022-12-14T07:52:46.039Z,-2.40
2022-12-14T07:55:14.792Z,-2.39
2022-12-14T07:57:44.319Z,-2.04
2022-12-14T08:00:13.138Z,-2.28
2022-12-14T08:02:41.871Z,-2.15
2022-12-14T08:05:12.630Z,-2.47
2022-12-14T08:07:42.436Z,-2.26
2022-12-14T08:10:11.199Z,-2.35
2022-12-14T08:12:40.736Z,-2.42
2022-12-14T08:15:10.514Z,-2.23
2022-12-14T08:17:39.971Z,-2.04
2022-12-14T08:20:10.860Z,-2.31
2022-12-14T08:22:38.602Z,-2.25
2022-12-14T08:25:09.259Z,-2.21
2022-12-14T08:27:38.012Z,-2.13
2022-12-14T08:30:08.052Z,-2.20
2022-12-14T08:32:37.511Z,-1.90
2022-12-14T08:35:07.867Z,-2.21
2022-12-14T08:37:36.579Z,-1.99
2022-12-14T08:40:06.290Z,-2.08
2022-12-14T08:42:34.840Z,-2.12
2022-12-14T08:45:02.625Z,-2.27
2022-12-14T08:47:32.140Z,-2.09
2022-12-14T08:50:01.636Z,-2.08
2022-12-14T08:52:29.396Z,-2.01
2022-12-14T08:54:59.742Z,-1.99
2022-12-14T08:57:29.336Z,-2.07
2022-12-14T09:00:01.771Z,-1.81
2022-12-14T09:02:31.384Z,-1.77
2022-12-14T09:05:00.985Z,-2.12
2022-12-14T09:07:31.698Z,-1.89
2022-12-14T09:10:00.451Z,-1.78
2022-12-14T09:12:29.679Z,-1.90
2022-12-14T09:14:58.380Z,-1.83
2022-12-14T09:17:26.130Z,-2.27
2022-12-14T09:19:54.849Z,-1.98
2022-12-14T09:22:22.619Z,-2.09
2022-12-14T09:24:52.377Z,-2.23
2022-12-14T09:27:22.636Z,-1.98
2022-12-14T09:29:51.857Z,-1.96
2022-12-14T09:32:20.804Z,-1.86
2022-12-14T09:34:48.539Z,-1.91
2022-12-14T09:37:18.053Z,-1.83
2022-12-14T09:39:46.772Z,-1.78
2022-12-14T09:42:50.740Z,-1.96
2022-12-14T09:45:34.615Z,-1.71
2022-12-14T09:48:33.726Z,-1.67
2022-12-14T09:51:02.361Z,-1.86
2022-12-14T09:53:32.341Z,-1.58
2022-12-14T09:56:01.757Z,-1.73
2022-12-14T09:58:32.785Z,-2.04
2022-12-14T10:01:24.722Z,-1.91
2022-12-14T10:04:47.644Z,-1.90
2022-12-14T10:07:41.889Z,-1.39
2022-12-14T10:10:26.770Z,-1.32
2022-12-14T10:13:22.744Z,-1.58
2022-12-14T10:16:31.449Z,-1.73
2022-12-14T10:20:00.556Z,-1.69
2022-12-14T10:22:47.323Z,-1.74
2022-12-14T10:25:34.044Z,-1.67
2022-12-14T10:28:13.805Z,-1.81
2022-12-14T10:30:44.693Z,-1.40
2022-12-14T10:33:30.814Z,-1.33
2022-12-14T10:36:19.329Z,-1.38
2022-12-14T10:39:27.219Z,-1.49
2022-12-14T10:42:20.158Z,-1.80
2022-12-14T10:45:47.373Z,-1.72
2022-12-14T10:48:50.878Z,-1.98
2022-12-14T10:51:59.136Z,-1.86
2022-12-14T10:54:52.780Z,-1.76
2022-12-14T10:57:26.978Z,-1.50
2022-12-14T11:00:08.559Z,-1.81
2022-12-14T11:02:49.972Z,-1.83
2022-12-14T11:06:03.025Z,-1.60
2022-12-14T11:08:48.960Z,-1.57
2022-12-14T11:11:26.922Z,-1.45
2022-12-14T11:14:15.830Z,-1.40
2022-12-14T11:16:45.607Z,-1.37
2022-12-14T11:19:23.945Z,-1.23
2022-12-14T11:22:21.693Z,-1.50
2022-12-14T11:24:51.799Z,-1.34
2022-12-14T11:27:22.210Z,-1.19
2022-12-14T11:29:52.139Z,-1.29
2022-12-14T11:32:26.478Z,-1.49
2022-12-14T11:34:59.019Z,-1.75
2022-12-14T11:37:31.772Z,-1.37
2022-12-14T11:40:07.881Z,-1.36
2022-12-14T11:42:38.234Z,-1.22
2022-12-14T11:45:26.258Z,-1.21
2022-12-14T11:48:16.896Z,-1.56
2022-12-14T11:50:47.579Z,-1.63
2022-12-14T11:53:21.364Z,-1.45
2022-12-14T11:56:00.800Z,-1.40
2022-12-14T11:58:46.394Z,-1.57
2022-12-14T12:01:25.744Z,-1.40
2022-12-14T12:03:59.522Z,-1.35
2022-12-14T12:06:32.441Z,-1.66
2022-12-14T12:09:08.349Z,-1.74
2022-12-14T12:11:38.073Z,-1.70
2022-12-14T12:14:38.537Z,-1.63
2022-12-14T12:17:42.205Z,-1.59
2022-12-14T12:21:08.303Z,-1.43
2022-12-14T12:23:56.181Z,-1.47
2022-12-14T12:26:54.572Z,-1.40
2022-12-14T12:30:01.253Z,-1.38
2022-12-14T12:32:49.953Z,-1.56
2022-12-14T12:35:49.559Z,-1.38
2022-12-14T12:38:33.132Z,-1.51
2022-12-14T12:41:47.871Z,-1.44
2022-12-14T12:44:38.743Z,-1.47
2022-12-14T12:47:47.084Z,-1.64
2022-12-14T12:50:28.204Z,-1.45
2022-12-14T12:53:03.608Z,-1.50
2022-12-14T12:55:42.710Z,-1.64
2022-12-14T12:58:30.551Z,-1.70
2022-12-14T13:01:30.922Z,-1.51
2022-12-14T13:04:10.387Z,-1.51
2022-12-14T13:06:50.450Z,-1.36
2022-12-14T13:09:42.544Z,-1.32
2022-12-14T13:12:47.886Z,-1.36
2022-12-14T13:15:54.439Z,-1.25
2022-12-14T13:19:01.830Z,-1.12
2022-12-14T13:21:38.474Z,-0.99
2022-12-14T13:24:18.167Z,-1.01
2022-12-14T13:27:17.712Z,-1.20
2022-12-14T13:30:08.421Z,-1.23
2022-12-14T13:32:51.541Z,-1.24
2022-12-14T13:36:13.280Z,-1.36
2022-12-14T13:39:26.911Z,-1.20
2022-12-14T13:42:23.210Z,-1.37
2022-12-14T13:45:03.269Z,-1.39
2022-12-14T13:47:52.878Z,-1.66
2022-12-14T13:50:38.958Z,-1.36
2022-12-14T13:53:16.549Z,-1.25
2022-12-14T13:56:31.003Z,-1.37
2022-12-14T13:59:33.124Z,-1.42
2022-12-14T14:02:05.092Z,-1.68
2022-12-14T14:04:36.643Z,-1.34
2022-12-14T14:07:24.225Z,-1.30
2022-12-14T14:09:55.837Z,-1.26
2022-12-14T14:12:24.438Z,-1.45
2022-12-14T14:15:35.609Z,-1.39
2022-12-14T14:18:28.303Z,-1.52
2022-12-14T14:21:13.439Z,-1.46
2022-12-14T14:24:18.054Z,-1.52
2022-12-14T14:27:11.632Z,-1.58
2022-12-14T14:29:50.605Z,-1.44
2022-12-14T14:32:39.230Z,-1.40
2022-12-14T14:35:35.956Z,-1.33
2022-12-14T14:38:28.420Z,-1.22
2022-12-14T14:41:17.401Z,-1.31
2022-12-14T14:43:57.692Z,-1.31
2022-12-14T14:46:57.494Z,-1.43
2022-12-14T14:49:36.399Z,-1.32
2022-12-14T14:52:59.993Z,-1.22
2022-12-14T14:58:32.386Z,-1.15
2022-12-14T15:01:20.678Z,-1.34
2022-12-14T15:04:23.701Z,-1.25
2022-12-14T15:07:07.656Z,-1.33
2022-12-14T15:10:22.907Z,-1.27
2022-12-14T15:13:00.429Z,-1.37
2022-12-14T15:15:41.970Z,-1.14
2022-12-14T15:18:32.159Z,-1.18
2022-12-14T15:21:13.793Z,-1.19
2022-12-14T15:23:51.918Z,-1.20
2022-12-14T15:26:31.955Z,-1.26
2022-12-14T15:29:04.679Z,-1.22
2022-12-14T15:31:40.315Z,-1.36
2022-12-14T15:34:18.295Z,-1.40
2022-12-14T15:36:48.712Z,-1.19
2022-12-14T15:39:35.836Z,-1.47
2022-12-14T15:42:16.943Z,-1.19
2022-12-14T15:44:56.121Z,-1.50
2022-12-14T15:47:30.805Z,-1.25
2022-12-14T15:50:30.315Z,-1.31
2022-12-14T15:53:19.055Z,-1.16
2022-12-14T15:56:00.194Z,-1.32
2022-12-14T15:58:36.000Z,-1.45
2022-12-14T16:01:34.807Z,-1.25
2022-12-14T16:04:12.547Z,-1.24
2022-12-14T16:06:57.094Z,-1.28
2022-12-14T16:09:49.946Z,-1.33
2022-12-14T16:12:45.115Z,-1.24
2022-12-14T16:15:26.507Z,-1.26
2022-12-14T16:18:02.200Z,-1.31
2022-12-14T16:20:38.453Z,-1.46
2022-12-14T16:23:14.915Z,-1.36
2022-12-14T16:26:25.605Z,-1.42
2022-12-14T16:29:23.410Z,-1.03
2022-12-14T16:32:15.484Z,-0.95
2022-12-14T16:34:59.964Z,-1.04
2022-12-14T16:37:33.107Z,-1.38
2022-12-14T16:40:05.099Z,-1.41
2022-12-14T16:42:36.887Z,-1.38
2022-12-14T16:45:17.780Z,-1.34
2022-12-14T16:48:19.961Z,-1.15
2022-12-14T16:51:03.572Z,-1.42
2022-12-14T16:53:37.920Z,-1.24
2022-12-14T16:56:18.553Z,-1.25
2022-12-14T16:59:04.673Z,-1.29
2022-12-14T17:01:45.182Z,-1.35
2022-12-14T17:04:17.869Z,-1.37
2022-12-14T17:06:56.460Z,-1.39
2022-12-14T17:09:33.457Z,-1.73
2022-12-14T17:12:14.681Z,-1.48
2022-12-14T17:14:50.114Z,-1.40
2022-12-14T17:17:32.756Z,-1.61
2022-12-14T17:20:10.596Z,-1.40
2022-12-14T17:22:43.729Z,-1.18
2022-12-14T17:25:20.334Z,-1.16
2022-12-14T17:27:50.015Z,-1.38
2022-12-14T17:30:23.091Z,-1.50
2022-12-14T17:32:55.049Z,-1.05
2022-12-14T17:35:32.314Z,-1.27
2022-12-14T17:38:01.984Z,-1.18
2022-12-14T17:40:29.770Z,-1.39
2022-12-14T17:42:59.668Z,-1.35
2022-12-14T17:45:31.391Z,-1.18
2022-12-14T17:48:01.022Z,-0.90
2022-12-14T17:50:31.212Z,-0.90
2022-12-14T17:53:00.413Z,-0.77
2022-12-14T17:55:30.207Z,-0.94
2022-12-14T17:58:00.869Z,-0.97
2022-12-14T18:00:52.380Z,-1.02
2022-12-14T18:03:22.175Z,-0.77
2022-12-14T18:05:53.322Z,-0.77
2022-12-14T18:08:24.846Z,-0.98
2022-12-14T18:11:05.437Z,-0.97
2022-12-14T18:13:38.776Z,-1.04
2022-12-14T18:16:16.859Z,-0.97
2022-12-14T18:18:46.161Z,-1.04
2022-12-14T18:21:23.594Z,-1.00
2022-12-14T18:23:53.486Z,-1.05
2022-12-14T18:26:24.425Z,-0.92
2022-12-14T18:28:54.432Z,-0.64
2022-12-14T18:31:36.060Z,-0.92
2022-12-14T18:34:05.539Z,-0.89
2022-12-14T18:36:35.035Z,-0.92
2022-12-14T18:39:04.994Z,-0.82
2022-12-14T18:41:35.048Z,-0.85
2022-12-14T18:44:05.102Z,-0.92
2022-12-14T18:46:35.060Z,-0.69
2022-12-14T18:49:03.795Z,-0.54
2022-12-14T18:51:33.531Z,-0.60
2022-12-14T18:54:02.415Z,-0.52
2022-12-14T18:56:32.066Z,-0.77
2022-12-14T18:59:01.742Z,-0.76
2022-12-14T19:01:30.524Z,-0.99
2022-12-14T19:04:00.393Z,-1.02
2022-12-14T19:06:45.992Z,-1.02
2022-12-14T19:09:15.613Z,-1.03
2022-12-14T19:11:43.997Z,-0.92
2022-12-14T19:14:13.513Z,-0.89
2022-12-14T19:16:43.021Z,-0.92
2022-12-14T19:19:12.485Z,-1.05
2022-12-14T19:21:40.420Z,-0.86
2022-12-14T19:24:13.724Z,-0.55
2022-12-14T19:26:42.754Z,-0.91
2022-12-14T19:29:12.210Z,-0.88
2022-12-14T19:31:40.022Z,-0.92
2022-12-14T19:34:13.150Z,-0.85
2022-12-14T19:36:41.896Z,-0.98
2022-12-14T19:39:09.890Z,-0.99
2022-12-14T19:41:39.390Z,-1.06
2022-12-14T19:44:07.155Z,-1.16
2022-12-14T19:46:36.213Z,-1.08
2022-12-14T19:49:06.077Z,-1.18
2022-12-14T19:51:35.561Z,-1.11
2022-12-14T19:54:06.717Z,-1.15
2022-12-14T19:56:36.180Z,-1.09
2022-12-14T19:59:04.009Z,-1.01
2022-12-14T20:01:39.724Z,-1.26
2022-12-14T20:04:15.194Z,-1.02
2022-12-14T20:06:44.838Z,-1.06
2022-12-14T20:09:17.045Z,-1.08
2022-12-14T20:11:47.151Z,-1.01
2022-12-14T20:14:16.737Z,-0.91
2022-12-14T20:16:46.326Z,-0.82
2022-12-14T20:19:16.005Z,-1.03
2022-12-14T20:21:45.091Z,-0.94
2022-12-14T20:24:14.717Z,-1.01
2022-12-14T20:26:43.446Z,-1.03
2022-12-14T20:29:14.521Z,-0.93
2022-12-14T20:31:44.656Z,-0.83
2022-12-14T20:34:14.209Z,-1.06
2022-12-14T20:36:43.709Z,-0.99
2022-12-14T20:39:13.390Z,-0.87
2022-12-14T20:41:41.225Z,-1.12
2022-12-14T20:44:14.552Z,-1.05
2022-12-14T20:46:46.785Z,-1.22
2022-12-14T20:49:21.413Z,-1.23
2022-12-14T20:51:49.668Z,-1.34
2022-12-14T20:54:22.310Z,-1.29
2022-12-14T20:56:52.161Z,-1.16
2022-12-14T20:59:19.962Z,-1.21
2022-12-14T21:01:55.498Z,-1.16
2022-12-14T21:04:26.251Z,-1.39
2022-12-14T21:06:55.846Z,-1.20
2022-12-14T21:09:25.422Z,-1.30
2022-12-14T21:12:12.768Z,-0.96
2022-12-14T21:14:42.998Z,-1.18
2022-12-14T21:17:11.974Z,-1.05
2022-12-14T21:19:41.347Z,-0.98
2022-12-14T21:22:16.690Z,-1.31
2022-12-14T21:25:02.856Z,-1.02
2022-12-14T21:27:34.872Z,-0.91
2022-12-14T21:30:08.490Z,-1.34
2022-12-14T21:32:39.127Z,-0.89
2022-12-14T21:35:10.454Z,-0.89
2022-12-14T21:37:39.408Z,-0.93
2022-12-14T21:40:29.626Z,-0.95
2022-12-14T21:42:58.355Z,-0.83
2022-12-14T21:45:27.871Z,-0.78
2022-12-14T21:47:57.348Z,-0.57
2022-12-14T21:50:26.149Z,-0.61
2022-12-14T21:52:54.849Z,-0.49
2022-12-14T21:55:24.304Z,-0.41
2022-12-14T21:58:22.894Z,-0.47
2022-12-14T22:00:51.632Z,-0.55
2022-12-14T22:03:21.214Z,-0.65
2022-12-14T22:05:50.711Z,-0.91
2022-12-14T22:08:19.416Z,-1.26
2022-12-14T22:10:48.071Z,-1.33
2022-12-14T22:13:15.814Z,-1.05
2022-12-14T22:15:43.607Z,-0.82
2022-12-14T22:18:13.068Z,-0.75
2022-12-14T22:20:41.839Z,-0.69
2022-12-14T22:23:15.631Z,-0.97
2022-12-14T22:25:51.130Z,-0.91
2022-12-14T22:28:20.684Z,-0.88
2022-12-14T22:30:50.414Z,-0.66
2022-12-14T22:33:19.135Z,-0.72
2022-12-14T22:35:48.621Z,-0.78
2022-12-14T22:38:18.175Z,-0.73
2022-12-14T22:40:46.864Z,-0.53
2022-12-14T22:43:15.598Z,-0.79
2022-12-14T22:45:45.360Z,-0.71
2022-12-14T22:48:14.191Z,-0.82
2022-12-14T22:50:43.793Z,-0.77
2022-12-14T22:53:14.121Z,-0.82
2022-12-14T22:55:49.899Z,-0.64
2022-12-14T22:58:20.489Z,-0.72
2022-12-14T23:00:50.957Z,-0.67
2022-12-14T23:03:26.257Z,-0.65
2022-12-14T23:06:00.378Z,-0.87
2022-12-14T23:08:31.624Z,-0.56
2022-12-14T23:11:19.577Z,-0.42
2022-12-14T23:14:07.055Z,-0.53
2022-12-14T23:16:55.233Z,-0.53
2022-12-14T23:19:43.387Z,-0.45
2022-12-14T23:22:31.532Z,-0.54
2022-12-14T23:25:18.861Z,-0.45
2022-12-14T23:28:06.724Z,-0.76
2022-12-14T23:30:54.793Z,-0.81
2022-12-14T23:33:42.844Z,-0.44
2022-12-14T23:36:30.961Z,-0.45
2022-12-14T23:39:19.202Z,-0.43
2022-12-14T23:42:07.552Z,-0.69
2022-12-14T23:44:55.663Z,-0.57
2022-12-14T23:47:43.799Z,-0.48
2022-12-14T23:50:31.939Z,-0.32
2022-12-14T23:53:27.778Z,-0.39
2022-12-14T23:56:15.397Z,-0.49
2022-12-14T23:59:03.515Z,-0.52
